Terminal Aerodrome Forecast
Issued by NWS

Home | Current Version | Previous Version | Graphics & Text | Print | Product List | Glossary On
Versions: 1 2 3 4 5 6 7 8 9 10 11 12 13 14 15 16 17
000
FTUS43 KMPX 220500
TAFRWF
TAF
KRWF 220520Z 2206/2306 15012KT 4SM BR OVC007
      TEMPO 2206/2209 6SM SCT007 OVC020
     FM221000 14012KT 2SM -DZ BR OVC003
     FM221600 13012KT 1 1/2SM -RA BR OVC005
     FM222300 13011KT 3/4SM -SN BR VV003=

USA.gov is the U.S. government's official web portal to all federal, state and local government web resources and services.